createdAt,value
2023-06-11T00:00:48.064Z,55.70
2023-06-11T00:03:14.887Z,55.80
2023-06-11T00:05:41.795Z,56.10
2023-06-11T00:08:11.137Z,56.30
2023-06-11T00:10:37.892Z,56.30
2023-06-11T00:13:04.573Z,56.40
2023-06-11T00:15:31.683Z,56.50
2023-06-11T00:17:58.433Z,56.70
2023-06-11T00:20:25.242Z,56.80
2023-06-11T00:22:52.026Z,56.90
2023-06-11T00:25:18.853Z,57.20
2023-06-11T00:27:45.568Z,57.40
2023-06-11T00:30:13.273Z,57.30
2023-06-11T00:32:40.093Z,57.40
2023-06-11T00:35:09.000Z,57.60
2023-06-11T00:37:37.039Z,57.80
2023-06-11T00:40:04.693Z,57.80
2023-06-11T00:42:34.618Z,57.80
2023-06-11T00:45:06.888Z,57.80
2023-06-11T00:47:34.378Z,58.00
2023-06-11T00:50:03.255Z,58.10
2023-06-11T00:52:30.020Z,58.10
2023-06-11T00:54:59.477Z,58.20
2023-06-11T00:57:27.025Z,58.40
2023-06-11T00:59:55.224Z,58.50
2023-06-11T01:02:33.925Z,58.60
2023-06-11T01:05:04.414Z,58.80
2023-06-11T01:07:36.544Z,58.80
2023-06-11T01:10:04.276Z,59.10
2023-06-11T01:12:31.390Z,59.20
2023-06-11T01:14:58.070Z,59.40
2023-06-11T01:17:37.002Z,59.50
2023-06-11T01:20:13.765Z,59.70
2023-06-11T01:22:50.300Z,59.80
2023-06-11T01:25:31.761Z,59.90
2023-06-11T01:28:09.595Z,60.10
2023-06-11T01:30:44.484Z,61.00
2023-06-11T01:33:12.022Z,60.20
2023-06-11T01:35:40.194Z,60.20
2023-06-11T01:38:09.393Z,60.30
2023-06-11T01:40:36.413Z,60.50
2023-06-11T01:43:05.839Z,60.60
2023-06-11T01:45:33.860Z,60.70
2023-06-11T01:48:03.962Z,61.00
2023-06-11T01:50:31.243Z,61.10
2023-06-11T01:52:58.067Z,61.30
2023-06-11T01:55:24.825Z,61.60
2023-06-11T01:57:51.658Z,61.80
2023-06-11T02:00:19.569Z,61.90
2023-06-11T02:02:48.502Z,62.00
2023-06-11T02:05:15.811Z,62.30
2023-06-11T02:07:42.522Z,62.50
2023-06-11T02:10:09.758Z,62.90
2023-06-11T02:12:36.450Z,63.10
2023-06-11T02:15:03.683Z,63.00
2023-06-11T02:17:30.431Z,63.10
2023-06-11T02:19:57.143Z,63.10
2023-06-11T02:22:24.009Z,63.30
2023-06-11T02:24:50.874Z,63.50
2023-06-11T02:27:17.640Z,63.60
2023-06-11T02:29:44.400Z,63.70
2023-06-11T02:32:11.824Z,63.90
2023-06-11T02:34:38.516Z,64.20
2023-06-11T02:37:05.406Z,64.40
2023-06-11T02:39:32.152Z,64.50
2023-06-11T02:41:58.900Z,64.60
2023-06-11T02:44:25.966Z,64.60
2023-06-11T02:46:52.766Z,64.70
2023-06-11T02:49:19.522Z,65.10
2023-06-11T02:51:46.229Z,65.00
2023-06-11T02:54:12.994Z,65.00
2023-06-11T02:56:39.689Z,65.20
2023-06-11T02:59:06.574Z,65.30
2023-06-11T03:01:33.487Z,65.40
2023-06-11T03:04:00.357Z,65.50
2023-06-11T03:06:27.114Z,65.80
2023-06-11T03:08:54.537Z,66.00
2023-06-11T03:11:21.223Z,66.10
2023-06-11T03:13:47.907Z,66.10
2023-06-11T03:16:14.748Z,66.30
2023-06-11T03:18:44.765Z,66.50
2023-06-11T03:21:12.184Z,66.50
2023-06-11T03:23:38.991Z,66.40
2023-06-11T03:26:05.978Z,67.10
2023-06-11T03:28:32.713Z,66.90
2023-06-11T03:30:59.639Z,67.10
2023-06-11T03:33:26.516Z,67.10
2023-06-11T03:35:53.211Z,67.00
2023-06-11T03:38:20.266Z,67.10
2023-06-11T03:40:47.090Z,67.10
2023-06-11T03:43:14.248Z,67.20
2023-06-11T03:45:41.070Z,67.40
2023-06-11T03:48:09.199Z,67.40
2023-06-11T03:50:36.025Z,67.30
2023-06-11T03:53:02.824Z,67.20
2023-06-11T03:55:30.920Z,67.20
2023-06-11T03:57:57.977Z,67.30
2023-06-11T04:00:24.778Z,67.20
2023-06-11T04:02:51.778Z,67.20
2023-06-11T04:05:19.029Z,67.30
2023-06-11T04:07:45.776Z,67.40
2023-06-11T04:10:13.169Z,67.60
2023-06-11T04:12:39.876Z,67.50
2023-06-11T04:15:07.288Z,67.50
2023-06-11T04:17:34.518Z,67.50
2023-06-11T04:20:01.790Z,67.50
2023-06-11T04:22:28.574Z,67.40
2023-06-11T04:24:55.650Z,67.50
2023-06-11T04:27:22.325Z,67.50
2023-06-11T04:29:49.537Z,67.60
2023-06-11T04:32:18.004Z,67.60
2023-06-11T04:34:45.131Z,67.50
2023-06-11T04:37:11.935Z,67.50
2023-06-11T04:39:38.774Z,67.40
2023-06-11T04:42:06.670Z,67.40
2023-06-11T04:44:34.330Z,67.60
2023-06-11T04:47:02.337Z,67.60
2023-06-11T04:49:29.186Z,67.50
2023-06-11T04:51:59.185Z,67.40
2023-06-11T04:54:25.872Z,67.50
2023-06-11T04:56:52.547Z,67.40
2023-06-11T04:59:19.267Z,67.50
2023-06-11T05:01:51.536Z,67.50
2023-06-11T05:04:18.513Z,67.50
2023-06-11T05:06:48.003Z,67.60
2023-06-11T05:09:14.990Z,67.50
2023-06-11T05:11:44.285Z,67.40
2023-06-11T05:14:11.873Z,67.30
2023-06-11T05:16:40.290Z,67.20
2023-06-11T05:19:07.534Z,67.10
2023-06-11T05:21:34.671Z,67.00
2023-06-11T05:24:08.926Z,67.00
2023-06-11T05:26:36.429Z,66.80
2023-06-11T05:29:04.484Z,66.60
2023-06-11T05:31:32.197Z,66.50
2023-06-11T05:33:59.421Z,66.30
2023-06-11T05:36:27.322Z,66.10
2023-06-11T05:38:54.713Z,65.90
2023-06-11T05:41:21.699Z,65.80
2023-06-11T05:43:48.534Z,65.70
2023-06-11T05:46:16.031Z,65.50
2023-06-11T05:48:44.460Z,65.10
2023-06-11T05:51:11.491Z,64.80
2023-06-11T05:53:38.322Z,64.70
2023-06-11T05:56:06.482Z,64.60
2023-06-11T05:58:34.049Z,64.40
2023-06-11T06:01:05.239Z,64.00
2023-06-11T06:03:33.533Z,63.80
2023-06-11T06:06:04.347Z,63.50
2023-06-11T06:08:32.422Z,63.10
2023-06-11T06:10:59.306Z,62.70
2023-06-11T06:13:26.554Z,62.70
2023-06-11T06:15:54.224Z,62.30
2023-06-11T06:18:21.767Z,62.20
2023-06-11T06:20:48.667Z,61.90
2023-06-11T06:23:15.720Z,61.90
2023-06-11T06:25:42.862Z,61.60
2023-06-11T06:28:09.617Z,61.30
2023-06-11T06:30:36.468Z,61.30
2023-06-11T06:33:03.718Z,60.80
2023-06-11T06:35:32.698Z,60.60
2023-06-11T06:38:00.992Z,60.00
2023-06-11T06:40:28.173Z,59.70
2023-06-11T06:42:55.011Z,59.70
2023-06-11T06:45:21.678Z,59.50
2023-06-11T06:47:48.483Z,59.30
2023-06-11T06:50:15.347Z,59.30
2023-06-11T06:52:42.055Z,59.70
2023-06-11T06:55:09.924Z,58.90
2023-06-11T06:57:36.870Z,58.50
2023-06-11T07:00:05.703Z,58.30
2023-06-11T07:02:32.860Z,58.40
2023-06-11T07:04:59.859Z,58.10
2023-06-11T07:07:26.912Z,57.90
2023-06-11T07:09:53.665Z,57.50
2023-06-11T07:12:21.634Z,57.30
2023-06-11T07:14:48.412Z,57.20
2023-06-11T07:17:15.198Z,57.00
2023-06-11T07:19:42.030Z,57.10
2023-06-11T07:22:08.836Z,57.00
2023-06-11T07:24:36.468Z,56.70
2023-06-11T07:27:03.401Z,56.50
2023-06-11T07:29:30.215Z,56.10
2023-06-11T07:31:56.953Z,55.80
2023-06-11T07:34:23.865Z,55.50
2023-06-11T07:36:51.190Z,55.40
2023-06-11T07:39:18.548Z,55.10
2023-06-11T07:41:45.272Z,54.80
2023-06-11T07:44:13.289Z,54.60
2023-06-11T07:46:40.099Z,54.70
2023-06-11T07:49:06.952Z,54.30
2023-06-11T07:51:33.752Z,54.10
2023-06-11T07:54:01.474Z,53.90
2023-06-11T07:56:28.218Z,53.60
2023-06-11T07:58:56.064Z,53.20
2023-06-11T08:01:22.902Z,53.30
2023-06-11T08:03:49.961Z,53.00
2023-06-11T08:06:17.295Z,52.90
2023-06-11T08:08:44.452Z,52.30
2023-06-11T08:11:11.166Z,51.80
2023-06-11T08:13:39.377Z,51.30
2023-06-11T08:16:06.300Z,51.50
2023-06-11T08:18:33.007Z,51.30
2023-06-11T08:21:00.086Z,51.10
2023-06-11T08:23:26.809Z,50.80
2023-06-11T08:25:53.651Z,50.60
2023-06-11T08:28:21.094Z,50.40
2023-06-11T08:30:47.793Z,50.20
2023-06-11T08:33:14.860Z,49.90
2023-06-11T08:35:41.699Z,49.50
2023-06-11T08:38:08.446Z,49.60
2023-06-11T08:40:41.019Z,48.80
2023-06-11T08:43:08.867Z,48.80
2023-06-11T08:45:35.945Z,48.70
2023-06-11T08:48:04.652Z,48.20
2023-06-11T08:50:34.465Z,48.00
2023-06-11T08:53:04.111Z,48.10
2023-06-11T08:55:55.296Z,48.00
2023-06-11T08:58:23.842Z,47.60
2023-06-11T09:00:50.625Z,47.90
2023-06-11T09:03:17.425Z,47.90
2023-06-11T09:05:46.371Z,47.80
2023-06-11T09:08:13.226Z,47.50
2023-06-11T09:10:50.248Z,47.40
2023-06-11T09:13:18.349Z,46.90
2023-06-11T09:15:50.017Z,46.50
2023-06-11T09:18:21.099Z,46.10
2023-06-11T09:20:56.204Z,46.00
2023-06-11T09:23:33.431Z,45.70
2023-06-11T09:26:16.856Z,45.60
2023-06-11T09:28:43.538Z,45.20
2023-06-11T09:31:10.679Z,44.80
2023-06-11T09:33:37.800Z,44.30
2023-06-11T09:36:04.876Z,44.00
2023-06-11T09:38:38.074Z,44.00
2023-06-11T09:41:07.166Z,44.00
2023-06-11T09:43:35.291Z,44.00
2023-06-11T09:46:03.373Z,44.20
2023-06-11T09:48:31.025Z,43.70
2023-06-11T09:50:58.934Z,43.90
2023-06-11T09:53:25.668Z,44.00
2023-06-11T09:58:25.416Z,43.60
2023-06-11T10:01:03.662Z,43.30
2023-06-11T10:03:32.159Z,42.90
2023-06-11T10:05:59.927Z,42.90
2023-06-11T10:08:31.982Z,42.60
2023-06-11T10:11:03.094Z,42.60
2023-06-11T10:13:31.909Z,42.10
2023-06-11T10:16:10.976Z,41.80
2023-06-11T10:18:37.932Z,41.60
2023-06-11T10:21:05.864Z,41.70
2023-06-11T10:23:41.474Z,41.30
2023-06-11T10:26:10.845Z,41.10
2023-06-11T10:28:50.097Z,41.70
2023-06-11T10:31:27.161Z,41.00
2023-06-11T10:34:05.168Z,40.90
2023-06-11T10:36:37.035Z,40.40
2023-06-11T10:39:31.836Z,40.30
2023-06-11T10:42:02.877Z,40.30
2023-06-11T10:44:33.382Z,40.70
2023-06-11T10:47:03.584Z,41.10
2023-06-11T10:49:30.524Z,41.20
2023-06-11T10:51:57.460Z,41.40
2023-06-11T10:54:28.783Z,41.20
2023-06-11T10:56:55.886Z,41.00
2023-06-11T10:59:23.399Z,40.90
2023-06-11T11:01:59.669Z,41.00
2023-06-11T11:04:26.578Z,40.90
2023-06-11T11:07:09.333Z,40.80
2023-06-11T11:09:36.512Z,40.20
2023-06-11T11:12:04.387Z,40.10
2023-06-11T11:14:31.774Z,39.80
2023-06-11T11:17:02.298Z,39.90
2023-06-11T11:19:31.331Z,39.90
2023-06-11T11:21:58.381Z,39.50
2023-06-11T11:24:25.337Z,39.70
2023-06-11T11:26:52.204Z,39.50
2023-06-11T11:29:18.933Z,39.70
2023-06-11T11:31:46.671Z,39.70
2023-06-11T11:34:13.795Z,39.60
2023-06-11T11:36:40.718Z,39.70
2023-06-11T11:39:17.473Z,39.70
2023-06-11T11:41:54.246Z,39.20
2023-06-11T11:44:21.869Z,39.30
2023-06-11T11:46:48.814Z,39.20
2023-06-11T11:49:15.804Z,39.10
2023-06-11T11:51:47.159Z,38.90
2023-06-11T11:54:14.773Z,38.60
2023-06-11T11:56:41.851Z,38.60
2023-06-11T11:59:25.422Z,38.60
2023-06-11T12:01:58.087Z,37.90
2023-06-11T12:04:39.207Z,37.50
2023-06-11T12:07:07.873Z,37.50
2023-06-11T12:09:41.388Z,37.60
2023-06-11T12:12:09.307Z,37.50
2023-06-11T12:14:36.477Z,37.70
2023-06-11T12:17:04.024Z,37.40
2023-06-11T12:19:32.769Z,37.50
2023-06-11T12:21:59.525Z,38.10
2023-06-11T12:24:26.592Z,38.50
2023-06-11T12:26:53.384Z,38.40
2023-06-11T12:29:20.494Z,37.40
2023-06-11T12:31:48.533Z,37.40
2023-06-11T12:34:18.136Z,37.40
2023-06-11T12:36:46.128Z,37.10
2023-06-11T12:39:12.980Z,37.00
2023-06-11T12:41:40.515Z,36.70
2023-06-11T12:44:07.210Z,36.50
2023-06-11T12:46:35.883Z,37.10
2023-06-11T12:49:02.952Z,36.30
2023-06-11T12:51:29.628Z,36.50
2023-06-11T12:53:56.480Z,35.90
2023-06-11T12:56:24.342Z,36.00
2023-06-11T12:58:51.697Z,35.70
2023-06-11T13:01:18.752Z,35.90
2023-06-11T13:03:45.560Z,35.70
2023-06-11T13:06:12.325Z,35.90
2023-06-11T13:08:39.198Z,36.00
2023-06-11T13:11:06.038Z,35.90
2023-06-11T13:13:32.933Z,35.40
2023-06-11T13:15:59.758Z,35.50
2023-06-11T13:18:26.485Z,35.30
2023-06-11T13:20:54.087Z,35.10
2023-06-11T13:23:21.617Z,34.70
2023-06-11T13:25:49.226Z,34.70
2023-06-11T13:28:16.102Z,34.70
2023-06-11T13:30:42.895Z,33.90
2023-06-11T13:33:09.695Z,34.20
2023-06-11T13:35:36.986Z,34.60
2023-06-11T13:38:03.803Z,34.40
2023-06-11T13:40:30.570Z,34.10
2023-06-11T13:42:57.325Z,34.10
2023-06-11T13:45:24.169Z,34.30
2023-06-11T13:47:51.050Z,34.60
2023-06-11T13:50:17.944Z,35.40
2023-06-11T13:52:45.881Z,36.20
2023-06-11T13:55:13.004Z,36.50
2023-06-11T13:57:42.305Z,36.90
2023-06-11T14:00:09.716Z,37.50
2023-06-11T14:02:36.762Z,37.40
2023-06-11T14:05:03.636Z,37.40
2023-06-11T14:07:30.541Z,37.60
2023-06-11T14:09:57.226Z,37.80
2023-06-11T14:12:23.929Z,38.10
2023-06-11T14:14:51.022Z,38.10
2023-06-11T14:17:18.552Z,38.80
2023-06-11T14:19:45.332Z,39.10
2023-06-11T14:22:12.871Z,39.10
2023-06-11T14:24:39.595Z,38.60
2023-06-11T14:27:07.855Z,38.50
2023-06-11T14:29:34.836Z,38.80
2023-06-11T14:32:05.092Z,39.40
2023-06-11T14:34:32.009Z,39.20
2023-06-11T14:36:58.755Z,39.10
2023-06-11T14:39:25.647Z,39.30
2023-06-11T14:41:52.437Z,39.60
2023-06-11T14:44:19.266Z,40.10
2023-06-11T14:46:46.126Z,40.20
2023-06-11T14:49:12.870Z,40.20
2023-06-11T14:51:39.770Z,40.50
2023-06-11T14:54:06.479Z,40.70
2023-06-11T14:56:33.193Z,40.70
2023-06-11T14:59:00.057Z,40.60
2023-06-11T15:01:26.779Z,40.50
2023-06-11T15:03:53.527Z,40.80
2023-06-11T15:06:20.417Z,40.80
2023-06-11T15:08:47.181Z,40.90
2023-06-11T15:11:13.964Z,40.70
2023-06-11T15:13:41.944Z,40.80
2023-06-11T15:16:08.784Z,40.90
2023-06-11T15:18:35.486Z,41.20
2023-06-11T15:21:02.424Z,41.00
2023-06-11T15:23:29.144Z,41.00
2023-06-11T15:25:56.236Z,41.00
2023-06-11T15:28:23.024Z,40.90
2023-06-11T15:30:49.765Z,41.20
2023-06-11T15:33:16.669Z,41.30
2023-06-11T15:35:43.666Z,41.30
2023-06-11T15:38:10.607Z,41.50
2023-06-11T15:40:37.264Z,41.60
2023-06-11T15:43:04.129Z,41.40
2023-06-11T15:45:30.885Z,41.30
2023-06-11T15:47:57.643Z,41.80
2023-06-11T15:50:24.664Z,41.60
2023-06-11T15:52:51.423Z,41.70
2023-06-11T15:55:18.552Z,41.90
2023-06-11T15:57:45.519Z,42.00
2023-06-11T16:00:13.023Z,41.90
2023-06-11T16:02:40.144Z,42.00
2023-06-11T16:05:07.154Z,42.10
2023-06-11T16:07:34.287Z,42.20
2023-06-11T16:10:01.706Z,42.50
2023-06-11T16:12:28.398Z,42.40
2023-06-11T16:14:55.086Z,42.60
2023-06-11T16:17:23.141Z,42.80
2023-06-11T16:19:50.878Z,43.30
2023-06-11T16:22:17.662Z,43.30
2023-06-11T16:24:44.524Z,43.70
2023-06-11T16:27:11.213Z,43.00
2023-06-11T16:29:37.975Z,42.80
2023-06-11T16:32:05.192Z,42.20
2023-06-11T16:34:31.936Z,42.30
2023-06-11T16:36:58.934Z,42.50
2023-06-11T16:39:28.577Z,42.70
2023-06-11T16:41:56.241Z,42.90
2023-06-11T16:44:23.049Z,42.90
2023-06-11T16:46:50.015Z,43.30
2023-06-11T16:49:17.674Z,43.50
2023-06-11T16:51:44.539Z,42.90
2023-06-11T16:54:11.243Z,43.50
2023-06-11T16:56:38.007Z,42.80
2023-06-11T16:59:04.749Z,42.70
2023-06-11T17:01:31.502Z,42.40
2023-06-11T17:03:58.392Z,42.50
2023-06-11T17:06:27.928Z,42.60
2023-06-11T17:08:56.023Z,42.90
2023-06-11T17:11:22.755Z,42.60
2023-06-11T17:13:50.525Z,42.20
2023-06-11T17:16:17.301Z,42.20
2023-06-11T17:18:44.229Z,41.60
2023-06-11T17:21:11.736Z,41.20
2023-06-11T17:23:38.545Z,41.00
2023-06-11T17:26:05.408Z,40.40
2023-06-11T17:28:32.223Z,39.10
2023-06-11T17:30:58.964Z,38.70
2023-06-11T17:33:26.053Z,38.20
2023-06-11T17:35:53.509Z,37.70
2023-06-11T17:38:20.943Z,37.00
2023-06-11T17:40:47.688Z,36.60
2023-06-11T17:43:14.452Z,35.90
2023-06-11T17:45:41.302Z,35.10
2023-06-11T17:48:08.156Z,34.60
2023-06-11T17:50:34.941Z,34.40
2023-06-11T17:53:01.995Z,34.20
2023-06-11T17:55:28.787Z,34.50
2023-06-11T17:57:55.837Z,33.80
2023-06-11T18:00:22.642Z,33.30
2023-06-11T18:02:49.334Z,33.00
2023-06-11T18:05:16.319Z,32.60
2023-06-11T18:07:46.557Z,32.70
2023-06-11T18:10:17.164Z,33.30
2023-06-11T18:12:45.053Z,33.00
2023-06-11T18:15:30.576Z,32.20
2023-06-11T18:17:58.735Z,32.20
2023-06-11T18:20:25.624Z,32.60
2023-06-11T18:22:52.571Z,32.00
2023-06-11T18:25:19.536Z,31.90
2023-06-11T18:27:46.268Z,31.60
2023-06-11T18:30:13.436Z,31.70
2023-06-11T18:32:40.524Z,31.00
2023-06-11T18:35:07.842Z,31.00
2023-06-11T18:37:34.592Z,31.30
2023-06-11T18:40:01.855Z,31.00
2023-06-11T18:42:28.725Z,31.50
2023-06-11T18:44:55.426Z,33.00
2023-06-11T18:47:22.203Z,33.90
2023-06-11T18:49:48.891Z,34.50
2023-06-11T18:52:15.656Z,34.40
2023-06-11T18:54:42.388Z,34.80
2023-06-11T18:57:09.674Z,35.50
2023-06-11T18:59:37.261Z,36.20
2023-06-11T19:02:04.921Z,37.00
2023-06-11T19:04:32.076Z,37.90
2023-06-11T19:06:58.936Z,38.30
2023-06-11T19:09:25.705Z,38.60
2023-06-11T19:11:52.537Z,39.20
2023-06-11T19:14:19.228Z,39.90
2023-06-11T19:16:49.259Z,40.40
2023-06-11T19:19:18.183Z,41.00
2023-06-11T19:21:46.826Z,41.60
2023-06-11T19:24:15.400Z,42.10
2023-06-11T19:26:43.601Z,42.70
2023-06-11T19:29:10.572Z,43.20
2023-06-11T19:31:37.433Z,44.20
2023-06-11T19:34:05.258Z,44.00
2023-06-11T19:36:32.138Z,44.60
2023-06-11T19:38:58.888Z,44.70
2023-06-11T19:44:00.201Z,45.00
2023-06-11T19:46:30.003Z,45.70
2023-06-11T19:48:58.393Z,45.90
2023-06-11T19:51:25.311Z,46.20
2023-06-11T19:53:52.761Z,46.50
2023-06-11T19:56:20.483Z,47.30
2023-06-11T19:58:47.691Z,46.90
2023-06-11T20:01:17.933Z,47.10
2023-06-11T20:03:45.711Z,47.30
2023-06-11T20:06:13.304Z,47.50
2023-06-11T20:08:40.856Z,47.80
2023-06-11T20:11:11.827Z,48.20
2023-06-11T20:13:43.388Z,48.50
2023-06-11T20:16:10.343Z,48.80
2023-06-11T20:18:37.133Z,49.10
2023-06-11T20:21:04.482Z,49.30
2023-06-11T20:23:32.985Z,49.70
2023-06-11T20:26:00.458Z,50.00
2023-06-11T20:28:27.473Z,50.20
2023-06-11T20:30:54.169Z,50.30
2023-06-11T20:33:21.085Z,50.50
2023-06-11T20:35:47.884Z,50.60
2023-06-11T20:38:14.717Z,50.60
2023-06-11T20:40:41.650Z,50.80
2023-06-11T20:43:08.365Z,50.90
2023-06-11T20:45:37.292Z,51.10
2023-06-11T20:48:05.288Z,51.30
2023-06-11T20:50:32.270Z,51.50
2023-06-11T20:52:59.078Z,52.30
2023-06-11T20:55:25.863Z,52.00
2023-06-11T20:57:52.565Z,52.20
2023-06-11T21:00:19.566Z,52.80
2023-06-11T21:02:46.539Z,52.70
2023-06-11T21:05:13.308Z,53.00
2023-06-11T21:07:40.048Z,53.30
2023-06-11T21:10:07.558Z,53.60
2023-06-11T21:12:37.978Z,54.00
2023-06-11T21:15:05.675Z,54.30
2023-06-11T21:17:32.468Z,54.60
2023-06-11T21:19:59.154Z,54.90
2023-06-11T21:22:26.058Z,55.20
2023-06-11T21:24:52.724Z,55.40
2023-06-11T21:27:19.456Z,55.60
2023-06-11T21:29:46.307Z,55.80
2023-06-11T21:32:13.073Z,56.00
2023-06-11T21:34:39.888Z,56.30
2023-06-11T21:37:06.832Z,56.40
2023-06-11T21:39:33.537Z,56.50
2023-06-11T21:42:00.791Z,56.70
2023-06-11T21:44:27.576Z,57.10
2023-06-11T21:46:54.283Z,57.20
2023-06-11T21:49:21.238Z,57.40
2023-06-11T21:51:48.013Z,57.50
2023-06-11T21:54:14.721Z,57.80
2023-06-11T21:56:41.506Z,58.20
2023-06-11T21:59:08.272Z,58.40
2023-06-11T22:01:35.120Z,58.60
2023-06-11T22:04:02.124Z,58.90
2023-06-11T22:06:28.911Z,59.20
2023-06-11T22:08:55.601Z,59.50
2023-06-11T22:11:22.869Z,59.60
2023-06-11T22:13:49.809Z,59.80
2023-06-11T22:16:17.466Z,59.90
2023-06-11T22:18:45.137Z,60.10
2023-06-11T22:21:15.084Z,60.30
2023-06-11T22:23:50.282Z,60.40
2023-06-11T22:26:18.283Z,60.50
2023-06-11T22:28:45.079Z,60.80
2023-06-11T22:31:11.789Z,61.20
2023-06-11T22:33:38.526Z,61.40
2023-06-11T22:36:05.586Z,61.70
2023-06-11T22:38:32.324Z,61.90
2023-06-11T22:40:59.098Z,62.10
2023-06-11T22:43:25.825Z,62.30
2023-06-11T22:45:53.042Z,62.50
2023-06-11T22:48:19.758Z,62.80
2023-06-11T22:50:48.463Z,62.90
2023-06-11T22:53:15.666Z,63.10
2023-06-11T22:55:42.844Z,63.40
2023-06-11T22:58:10.062Z,63.60
2023-06-11T23:00:37.096Z,63.70
2023-06-11T23:03:04.109Z,63.90
2023-06-11T23:05:30.993Z,64.00
2023-06-11T23:07:57.873Z,64.10
2023-06-11T23:10:25.103Z,64.30
2023-06-11T23:12:53.674Z,64.70
2023-06-11T23:15:20.930Z,64.80
2023-06-11T23:17:50.980Z,64.90
2023-06-11T23:20:18.044Z,65.00
2023-06-11T23:22:48.580Z,65.20
2023-06-11T23:25:17.532Z,65.40
2023-06-11T23:27:45.047Z,65.70
2023-06-11T23:30:13.069Z,65.70
2023-06-11T23:32:40.152Z,65.80
2023-06-11T23:35:09.162Z,66.00
2023-06-11T23:37:41.670Z,66.20
2023-06-11T23:40:12.299Z,66.40
2023-06-11T23:42:39.155Z,66.60
2023-06-11T23:45:06.530Z,66.90
2023-06-11T23:47:33.510Z,67.10
2023-06-11T23:50:00.245Z,67.50
2023-06-11T23:52:27.419Z,67.80
2023-06-11T23:54:54.535Z,67.90
2023-06-11T23:57:21.300Z,68.10
2023-06-11T23:59:48.991Z,68.20
